Aristides Batista, Brazil
Current Conditions -  °F | °C
As of 9:00 AM on Friday 19 Dec 2014 (Local Time) from SBMK Reporting Station
Few Clouds Few Clouds  
Wind Chill: 77°   Ceiling: Unl
Heat Index: 79°   Visibility: 6mi
Dew Point: 64°   Wind: 5mph
Humidity: 65%   Direction: NA
Pressure: 29.94"   Gusts: NA
Location:  16.59°S, 44.13°W
Report Text: SBMK 191100Z VRB04KT 9999 FEW025 25/18 Q1014
Loading
Personal Weather Stations






























Interactive Weather Map New forecast layout! Learn more

10-Day Weather Forecast

Advertisements
Track Severe Weather on mobile